sensor_id;sensor_type;location;lat;lon;timestamp;P1;durP1;ratioP1;P2;durP2;ratioP2
60979;SDS011;46851;49.160;8.980;2023-06-22T00:02:13;7.25;;;5.25;;
60979;SDS011;46851;49.160;8.980;2023-06-22T00:04:39;9.90;;;4.85;;
60979;SDS011;46851;49.160;8.980;2023-06-22T00:07:05;9.25;;;5.68;;
60979;SDS011;46851;49.160;8.980;2023-06-22T00:09:31;9.00;;;5.97;;
60979;SDS011;46851;49.160;8.980;2023-06-22T00:11:57;10.35;;;6.57;;
60979;SDS011;46851;49.160;8.980;2023-06-22T00:14:23;10.20;;;5.90;;
60979;SDS011;46851;49.160;8.980;2023-06-22T00:16:49;7.72;;;5.75;;
60979;SDS011;46851;49.160;8.980;2023-06-22T00:19:19;10.15;;;5.93;;
60979;SDS011;46851;49.160;8.980;2023-06-22T00:21:46;8.85;;;5.72;;
60979;SDS011;46851;49.160;8.980;2023-06-22T00:24:17;11.15;;;6.55;;
60979;SDS011;46851;49.160;8.980;2023-06-22T00:26:43;11.63;;;6.10;;
60979;SDS011;46851;49.160;8.980;2023-06-22T00:29:09;12.45;;;6.97;;
60979;SDS011;46851;49.160;8.980;2023-06-22T00:31:35;10.38;;;6.60;;
60979;SDS011;46851;49.160;8.980;2023-06-22T00:34:01;12.43;;;6.32;;
60979;SDS011;46851;49.160;8.980;2023-06-22T00:36:27;9.68;;;6.35;;
60979;SDS011;46851;49.160;8.980;2023-06-22T00:38:53;11.02;;;6.40;;
60979;SDS011;46851;49.160;8.980;2023-06-22T00:41:19;12.82;;;6.60;;
60979;SDS011;46851;49.160;8.980;2023-06-22T00:43:45;9.90;;;6.35;;
60979;SDS011;46851;49.160;8.980;2023-06-22T00:46:11;10.45;;;6.47;;
60979;SDS011;46851;49.160;8.980;2023-06-22T00:48:37;10.45;;;6.78;;
60979;SDS011;46851;49.160;8.980;2023-06-22T00:51:05;11.27;;;6.70;;
60979;SDS011;46851;49.160;8.980;2023-06-22T00:53:31;11.98;;;6.32;;
60979;SDS011;46851;49.160;8.980;2023-06-22T00:56:00;9.87;;;6.00;;
60979;SDS011;46851;49.160;8.980;2023-06-22T00:58:28;11.98;;;6.38;;
60979;SDS011;46851;49.160;8.980;2023-06-22T01:00:54;10.82;;;6.40;;
60979;SDS011;46851;49.160;8.980;2023-06-22T01:03:20;10.85;;;6.53;;
60979;SDS011;46851;49.160;8.980;2023-06-22T01:05:46;10.60;;;6.40;;
60979;SDS011;46851;49.160;8.980;2023-06-22T01:10:56;16.73;;;7.60;;
60979;SDS011;46851;49.160;8.980;2023-06-22T01:15:51;13.65;;;7.10;;
60979;SDS011;46851;49.160;8.980;2023-06-22T01:18:18;11.52;;;7.22;;
60979;SDS011;46851;49.160;8.980;2023-06-22T01:20:45;11.60;;;7.07;;
60979;SDS011;46851;49.160;8.980;2023-06-22T01:28:16;9.30;;;6.70;;
60979;SDS011;46851;49.160;8.980;2023-06-22T01:30:45;10.15;;;6.68;;
60979;SDS011;46851;49.160;8.980;2023-06-22T01:33:11;12.38;;;7.57;;
60979;SDS011;46851;49.160;8.980;2023-06-22T01:35:39;10.40;;;7.05;;
60979;SDS011;46851;49.160;8.980;2023-06-22T01:38:05;9.70;;;7.60;;
60979;SDS011;46851;49.160;8.980;2023-06-22T01:40:32;15.38;;;7.90;;
60979;SDS011;46851;49.160;8.980;2023-06-22T01:43:00;9.43;;;7.57;;
60979;SDS011;46851;49.160;8.980;2023-06-22T01:45:27;11.18;;;7.57;;
60979;SDS011;46851;49.160;8.980;2023-06-22T01:47:53;10.55;;;8.10;;
60979;SDS011;46851;49.160;8.980;2023-06-22T01:50:20;11.15;;;7.82;;
60979;SDS011;46851;49.160;8.980;2023-06-22T01:52:46;15.88;;;8.75;;
60979;SDS011;46851;49.160;8.980;2023-06-22T01:55:12;11.93;;;8.02;;
60979;SDS011;46851;49.160;8.980;2023-06-22T01:57:38;13.27;;;8.43;;
60979;SDS011;46851;49.160;8.980;2023-06-22T02:00:23;15.88;;;8.85;;
60979;SDS011;46851;49.160;8.980;2023-06-22T02:02:56;14.45;;;8.27;;
60979;SDS011;46851;49.160;8.980;2023-06-22T02:05:25;11.63;;;8.48;;
60979;SDS011;46851;49.160;8.980;2023-06-22T02:07:54;13.77;;;9.23;;
60979;SDS011;46851;49.160;8.980;2023-06-22T02:10:22;13.45;;;8.98;;
60979;SDS011;46851;49.160;8.980;2023-06-22T02:12:50;11.27;;;8.57;;
60979;SDS011;46851;49.160;8.980;2023-06-22T02:15:17;17.13;;;9.30;;
60979;SDS011;46851;49.160;8.980;2023-06-22T02:17:43;13.63;;;9.07;;
60979;SDS011;46851;49.160;8.980;2023-06-22T02:20:13;12.52;;;8.43;;
60979;SDS011;46851;49.160;8.980;2023-06-22T02:22:39;14.50;;;9.48;;
60979;SDS011;46851;49.160;8.980;2023-06-22T02:25:05;13.25;;;8.70;;
60979;SDS011;46851;49.160;8.980;2023-06-22T02:27:31;14.93;;;8.82;;
60979;SDS011;46851;49.160;8.980;2023-06-22T02:29:57;16.60;;;8.10;;
60979;SDS011;46851;49.160;8.980;2023-06-22T02:32:23;13.25;;;9.00;;
60979;SDS011;46851;49.160;8.980;2023-06-22T02:34:49;15.82;;;8.82;;
60979;SDS011;46851;49.160;8.980;2023-06-22T02:37:15;14.10;;;9.27;;
60979;SDS011;46851;49.160;8.980;2023-06-22T02:39:42;15.18;;;9.38;;
60979;SDS011;46851;49.160;8.980;2023-06-22T02:42:08;17.17;;;9.80;;
60979;SDS011;46851;49.160;8.980;2023-06-22T02:44:35;16.08;;;9.63;;
60979;SDS011;46851;49.160;8.980;2023-06-22T02:47:01;12.20;;;8.80;;
60979;SDS011;46851;49.160;8.980;2023-06-22T02:49:27;14.00;;;9.20;;
60979;SDS011;46851;49.160;8.980;2023-06-22T02:51:53;14.35;;;9.88;;
60979;SDS011;46851;49.160;8.980;2023-06-22T02:54:20;15.95;;;10.35;;
60979;SDS011;46851;49.160;8.980;2023-06-22T02:56:46;13.35;;;9.32;;
60979;SDS011;46851;49.160;8.980;2023-06-22T02:59:13;16.70;;;10.70;;
60979;SDS011;46851;49.160;8.980;2023-06-22T03:01:39;15.95;;;10.15;;
60979;SDS011;46851;49.160;8.980;2023-06-22T03:04:11;17.30;;;10.48;;
60979;SDS011;46851;49.160;8.980;2023-06-22T03:06:37;15.10;;;10.18;;
60979;SDS011;46851;49.160;8.980;2023-06-22T03:09:05;16.45;;;10.45;;
60979;SDS011;46851;49.160;8.980;2023-06-22T03:11:32;15.10;;;10.57;;
60979;SDS011;46851;49.160;8.980;2023-06-22T03:13:58;13.23;;;9.90;;
60979;SDS011;46851;49.160;8.980;2023-06-22T03:16:24;16.58;;;10.50;;
60979;SDS011;46851;49.160;8.980;2023-06-22T03:18:50;17.38;;;10.38;;
60979;SDS011;46851;49.160;8.980;2023-06-22T03:21:18;14.45;;;10.50;;
60979;SDS011;46851;49.160;8.980;2023-06-22T03:23:44;15.38;;;10.45;;
60979;SDS011;46851;49.160;8.980;2023-06-22T03:26:10;16.05;;;10.98;;
60979;SDS011;46851;49.160;8.980;2023-06-22T03:28:37;17.10;;;11.20;;
60979;SDS011;46851;49.160;8.980;2023-06-22T03:31:03;17.42;;;10.70;;
60979;SDS011;46851;49.160;8.980;2023-06-22T03:33:31;17.02;;;10.73;;
60979;SDS011;46851;49.160;8.980;2023-06-22T03:35:57;15.93;;;10.65;;
60979;SDS011;46851;49.160;8.980;2023-06-22T03:38:23;21.92;;;11.65;;
60979;SDS011;46851;49.160;8.980;2023-06-22T03:40:49;18.73;;;10.75;;
60979;SDS011;46851;49.160;8.980;2023-06-22T03:43:15;15.65;;;10.63;;
60979;SDS011;46851;49.160;8.980;2023-06-22T03:45:41;15.73;;;10.35;;
60979;SDS011;46851;49.160;8.980;2023-06-22T03:48:10;17.65;;;10.80;;
60979;SDS011;46851;49.160;8.980;2023-06-22T03:50:36;19.55;;;10.75;;
60979;SDS011;46851;49.160;8.980;2023-06-22T03:53:02;20.38;;;12.27;;
60979;SDS011;46851;49.160;8.980;2023-06-22T03:55:28;17.08;;;11.20;;
60979;SDS011;46851;49.160;8.980;2023-06-22T03:57:54;16.40;;;11.10;;
60979;SDS011;46851;49.160;8.980;2023-06-22T04:00:25;22.65;;;12.35;;
60979;SDS011;46851;49.160;8.980;2023-06-22T04:02:52;20.70;;;12.13;;
60979;SDS011;46851;49.160;8.980;2023-06-22T04:05:18;22.02;;;12.75;;
60979;SDS011;46851;49.160;8.980;2023-06-22T04:07:44;23.73;;;12.63;;
60979;SDS011;46851;49.160;8.980;2023-06-22T04:10:10;20.58;;;11.50;;
60979;SDS011;46851;49.160;8.980;2023-06-22T04:12:36;24.02;;;12.13;;
60979;SDS011;46851;49.160;8.980;2023-06-22T04:15:02;25.40;;;12.18;;
60979;SDS011;46851;49.160;8.980;2023-06-22T04:17:28;38.85;;;13.88;;
60979;SDS011;46851;49.160;8.980;2023-06-22T04:19:54;22.52;;;12.43;;
60979;SDS011;46851;49.160;8.980;2023-06-22T04:22:20;25.23;;;12.60;;
60979;SDS011;46851;49.160;8.980;2023-06-22T04:24:46;16.85;;;11.05;;
60979;SDS011;46851;49.160;8.980;2023-06-22T04:27:12;28.98;;;11.70;;
60979;SDS011;46851;49.160;8.980;2023-06-22T04:29:38;24.23;;;11.05;;
60979;SDS011;46851;49.160;8.980;2023-06-22T04:32:14;16.88;;;10.90;;
60979;SDS011;46851;49.160;8.980;2023-06-22T04:34:40;18.13;;;11.40;;
60979;SDS011;46851;49.160;8.980;2023-06-22T04:37:06;18.38;;;10.88;;
60979;SDS011;46851;49.160;8.980;2023-06-22T04:39:32;20.30;;;10.18;;
60979;SDS011;46851;49.160;8.980;2023-06-22T04:41:58;18.42;;;9.82;;
60979;SDS011;46851;49.160;8.980;2023-06-22T04:44:27;19.47;;;9.13;;
60979;SDS011;46851;49.160;8.980;2023-06-22T04:46:53;19.98;;;9.95;;
60979;SDS011;46851;49.160;8.980;2023-06-22T04:49:25;19.17;;;9.93;;
60979;SDS011;46851;49.160;8.980;2023-06-22T04:51:57;14.88;;;10.13;;
60979;SDS011;46851;49.160;8.980;2023-06-22T04:54:23;19.67;;;10.60;;
60979;SDS011;46851;49.160;8.980;2023-06-22T04:56:49;14.43;;;9.52;;
60979;SDS011;46851;49.160;8.980;2023-06-22T04:59:21;15.25;;;9.20;;
60979;SDS011;46851;49.160;8.980;2023-06-22T05:01:47;15.48;;;9.70;;
60979;SDS011;46851;49.160;8.980;2023-06-22T05:04:13;20.67;;;10.05;;
60979;SDS011;46851;49.160;8.980;2023-06-22T05:06:39;20.65;;;10.35;;
60979;SDS011;46851;49.160;8.980;2023-06-22T05:09:05;14.73;;;9.88;;
60979;SDS011;46851;49.160;8.980;2023-06-22T05:11:31;20.45;;;10.95;;
60979;SDS011;46851;49.160;8.980;2023-06-22T05:13:57;15.02;;;9.57;;
60979;SDS011;46851;49.160;8.980;2023-06-22T05:16:23;14.63;;;9.10;;
60979;SDS011;46851;49.160;8.980;2023-06-22T05:18:53;14.10;;;9.40;;
60979;SDS011;46851;49.160;8.980;2023-06-22T05:21:23;17.88;;;9.57;;
60979;SDS011;46851;49.160;8.980;2023-06-22T05:23:49;19.02;;;9.55;;
60979;SDS011;46851;49.160;8.980;2023-06-22T05:26:15;13.30;;;9.35;;
60979;SDS011;46851;49.160;8.980;2023-06-22T05:28:41;18.77;;;8.75;;
60979;SDS011;46851;49.160;8.980;2023-06-22T05:31:10;15.55;;;8.70;;
60979;SDS011;46851;49.160;8.980;2023-06-22T05:33:36;15.80;;;8.45;;
60979;SDS011;46851;49.160;8.980;2023-06-22T05:36:02;13.57;;;8.50;;
60979;SDS011;46851;49.160;8.980;2023-06-22T05:38:28;15.32;;;8.52;;
60979;SDS011;46851;49.160;8.980;2023-06-22T05:40:54;13.45;;;8.68;;
60979;SDS011;46851;49.160;8.980;2023-06-22T05:43:20;14.73;;;8.48;;
60979;SDS011;46851;49.160;8.980;2023-06-22T05:45:46;13.30;;;8.05;;
60979;SDS011;46851;49.160;8.980;2023-06-22T05:48:12;16.80;;;9.50;;
60979;SDS011;46851;49.160;8.980;2023-06-22T05:50:38;13.07;;;8.30;;
60979;SDS011;46851;49.160;8.980;2023-06-22T05:53:04;12.73;;;8.20;;
60979;SDS011;46851;49.160;8.980;2023-06-22T05:55:32;13.85;;;8.07;;
60979;SDS011;46851;49.160;8.980;2023-06-22T05:57:58;12.25;;;7.95;;
60979;SDS011;46851;49.160;8.980;2023-06-22T06:00:24;11.93;;;8.20;;
60979;SDS011;46851;49.160;8.980;2023-06-22T06:02:50;12.98;;;7.72;;
60979;SDS011;46851;49.160;8.980;2023-06-22T06:05:16;13.52;;;7.88;;
60979;SDS011;46851;49.160;8.980;2023-06-22T06:07:43;12.50;;;7.60;;
60979;SDS011;46851;49.160;8.980;2023-06-22T06:10:09;13.15;;;7.53;;
60979;SDS011;46851;49.160;8.980;2023-06-22T06:12:35;11.43;;;7.20;;
60979;SDS011;46851;49.160;8.980;2023-06-22T06:15:02;10.45;;;6.78;;
60979;SDS011;46851;49.160;8.980;2023-06-22T06:17:28;10.70;;;6.72;;
60979;SDS011;46851;49.160;8.980;2023-06-22T06:19:54;9.68;;;6.50;;
60979;SDS011;46851;49.160;8.980;2023-06-22T06:22:20;12.13;;;6.30;;
60979;SDS011;46851;49.160;8.980;2023-06-22T06:24:47;9.48;;;6.25;;
60979;SDS011;46851;49.160;8.980;2023-06-22T06:27:13;14.23;;;7.03;;
60979;SDS011;46851;49.160;8.980;2023-06-22T06:29:39;11.77;;;6.60;;
60979;SDS011;46851;49.160;8.980;2023-06-22T06:32:05;10.18;;;7.30;;
60979;SDS011;46851;49.160;8.980;2023-06-22T06:34:31;13.30;;;7.03;;
60979;SDS011;46851;49.160;8.980;2023-06-22T06:36:57;12.43;;;6.75;;
60979;SDS011;46851;49.160;8.980;2023-06-22T06:39:23;10.98;;;6.50;;
60979;SDS011;46851;49.160;8.980;2023-06-22T06:41:50;8.68;;;6.22;;
60979;SDS011;46851;49.160;8.980;2023-06-22T06:44:16;12.00;;;6.85;;
60979;SDS011;46851;49.160;8.980;2023-06-22T06:46:42;9.85;;;6.20;;
60979;SDS011;46851;49.160;8.980;2023-06-22T06:49:08;9.57;;;6.55;;
60979;SDS011;46851;49.160;8.980;2023-06-22T06:51:34;8.18;;;6.45;;
60979;SDS011;46851;49.160;8.980;2023-06-22T06:54:01;10.27;;;6.35;;
60979;SDS011;46851;49.160;8.980;2023-06-22T06:56:28;12.82;;;7.10;;
60979;SDS011;46851;49.160;8.980;2023-06-22T06:58:55;14.23;;;6.38;;
60979;SDS011;46851;49.160;8.980;2023-06-22T07:01:21;9.40;;;5.53;;
60979;SDS011;46851;49.160;8.980;2023-06-22T07:03:47;10.43;;;6.15;;
60979;SDS011;46851;49.160;8.980;2023-06-22T07:06:13;13.98;;;6.00;;
60979;SDS011;46851;49.160;8.980;2023-06-22T07:08:39;11.95;;;5.97;;
60979;SDS011;46851;49.160;8.980;2023-06-22T07:11:05;9.10;;;5.90;;
60979;SDS011;46851;49.160;8.980;2023-06-22T07:13:31;9.50;;;5.70;;
60979;SDS011;46851;49.160;8.980;2023-06-22T07:15:58;10.63;;;5.65;;
60979;SDS011;46851;49.160;8.980;2023-06-22T07:18:24;8.85;;;6.43;;
60979;SDS011;46851;49.160;8.980;2023-06-22T07:20:51;7.35;;;5.85;;
60979;SDS011;46851;49.160;8.980;2023-06-22T07:23:17;9.15;;;6.25;;
60979;SDS011;46851;49.160;8.980;2023-06-22T07:25:43;8.35;;;5.38;;
60979;SDS011;46851;49.160;8.980;2023-06-22T07:28:09;6.18;;;5.38;;
60979;SDS011;46851;49.160;8.980;2023-06-22T07:30:36;9.45;;;5.70;;
60979;SDS011;46851;49.160;8.980;2023-06-22T07:33:02;11.13;;;6.43;;
60979;SDS011;46851;49.160;8.980;2023-06-22T07:35:31;10.43;;;5.50;;
60979;SDS011;46851;49.160;8.980;2023-06-22T07:37:58;8.55;;;6.10;;
60979;SDS011;46851;49.160;8.980;2023-06-22T07:40:24;8.88;;;5.50;;
60979;SDS011;46851;49.160;8.980;2023-06-22T07:42:50;14.57;;;5.40;;
60979;SDS011;46851;49.160;8.980;2023-06-22T07:45:19;7.82;;;5.15;;
60979;SDS011;46851;49.160;8.980;2023-06-22T07:47:45;7.80;;;4.35;;
60979;SDS011;46851;49.160;8.980;2023-06-22T07:50:11;8.23;;;5.28;;
60979;SDS011;46851;49.160;8.980;2023-06-22T07:52:37;6.78;;;5.18;;
60979;SDS011;46851;49.160;8.980;2023-06-22T07:55:03;7.80;;;4.60;;
60979;SDS011;46851;49.160;8.980;2023-06-22T07:57:29;7.15;;;4.75;;
60979;SDS011;46851;49.160;8.980;2023-06-22T07:59:59;7.15;;;4.03;;
60979;SDS011;46851;49.160;8.980;2023-06-22T08:02:26;6.70;;;4.18;;
60979;SDS011;46851;49.160;8.980;2023-06-22T08:04:52;6.03;;;4.05;;
60979;SDS011;46851;49.160;8.980;2023-06-22T08:07:18;11.35;;;4.38;;
60979;SDS011;46851;49.160;8.980;2023-06-22T08:09:47;7.43;;;4.05;;
60979;SDS011;46851;49.160;8.980;2023-06-22T08:12:14;5.88;;;4.00;;
60979;SDS011;46851;49.160;8.980;2023-06-22T08:14:41;6.82;;;4.07;;
60979;SDS011;46851;49.160;8.980;2023-06-22T08:17:09;8.80;;;4.50;;
60979;SDS011;46851;49.160;8.980;2023-06-22T08:19:36;4.72;;;3.53;;
60979;SDS011;46851;49.160;8.980;2023-06-22T08:22:02;7.93;;;3.90;;
60979;SDS011;46851;49.160;8.980;2023-06-22T08:24:28;6.88;;;4.03;;
60979;SDS011;46851;49.160;8.980;2023-06-22T08:26:55;12.35;;;4.57;;
60979;SDS011;46851;49.160;8.980;2023-06-22T08:29:21;8.18;;;3.83;;
60979;SDS011;46851;49.160;8.980;2023-06-22T08:31:47;7.18;;;3.97;;
60979;SDS011;46851;49.160;8.980;2023-06-22T08:34:13;6.22;;;4.22;;
60979;SDS011;46851;49.160;8.980;2023-06-22T08:36:39;7.57;;;4.43;;
60979;SDS011;46851;49.160;8.980;2023-06-22T08:39:09;11.33;;;4.00;;
60979;SDS011;46851;49.160;8.980;2023-06-22T08:41:35;5.25;;;3.65;;
60979;SDS011;46851;49.160;8.980;2023-06-22T08:44:01;5.00;;;3.58;;
60979;SDS011;46851;49.160;8.980;2023-06-22T08:46:29;7.75;;;4.30;;
60979;SDS011;46851;49.160;8.980;2023-06-22T08:48:58;8.95;;;4.05;;
60979;SDS011;46851;49.160;8.980;2023-06-22T08:51:24;5.45;;;4.28;;
60979;SDS011;46851;49.160;8.980;2023-06-22T08:53:50;6.28;;;3.70;;
60979;SDS011;46851;49.160;8.980;2023-06-22T08:56:16;8.38;;;4.05;;
60979;SDS011;46851;49.160;8.980;2023-06-22T08:58:43;9.00;;;3.92;;
60979;SDS011;46851;49.160;8.980;2023-06-22T09:01:09;12.88;;;4.35;;
60979;SDS011;46851;49.160;8.980;2023-06-22T09:03:35;7.05;;;3.38;;
60979;SDS011;46851;49.160;8.980;2023-06-22T09:06:02;6.28;;;3.67;;
60979;SDS011;46851;49.160;8.980;2023-06-22T09:08:28;5.13;;;3.78;;
60979;SDS011;46851;49.160;8.980;2023-06-22T09:10:54;9.93;;;4.47;;
60979;SDS011;46851;49.160;8.980;2023-06-22T09:13:20;6.93;;;4.18;;
60979;SDS011;46851;49.160;8.980;2023-06-22T09:15:47;7.72;;;4.65;;
60979;SDS011;46851;49.160;8.980;2023-06-22T09:18:13;10.60;;;4.47;;
60979;SDS011;46851;49.160;8.980;2023-06-22T09:20:39;9.20;;;4.53;;
60979;SDS011;46851;49.160;8.980;2023-06-22T09:23:05;9.30;;;4.45;;
60979;SDS011;46851;49.160;8.980;2023-06-22T09:25:31;15.40;;;4.38;;
60979;SDS011;46851;49.160;8.980;2023-06-22T09:27:57;7.47;;;4.03;;
60979;SDS011;46851;49.160;8.980;2023-06-22T09:30:23;10.18;;;4.38;;
60979;SDS011;46851;49.160;8.980;2023-06-22T09:32:49;12.50;;;4.25;;
60979;SDS011;46851;49.160;8.980;2023-06-22T09:35:15;7.85;;;4.28;;
60979;SDS011;46851;49.160;8.980;2023-06-22T09:37:41;11.02;;;4.28;;
60979;SDS011;46851;49.160;8.980;2023-06-22T09:40:07;8.43;;;4.28;;
60979;SDS011;46851;49.160;8.980;2023-06-22T09:42:35;11.73;;;3.85;;
60979;SDS011;46851;49.160;8.980;2023-06-22T09:45:01;9.25;;;4.10;;
60979;SDS011;46851;49.160;8.980;2023-06-22T09:47:27;8.65;;;3.90;;
60979;SDS011;46851;49.160;8.980;2023-06-22T09:49:53;6.72;;;4.15;;
60979;SDS011;46851;49.160;8.980;2023-06-22T09:52:20;9.65;;;3.90;;
60979;SDS011;46851;49.160;8.980;2023-06-22T09:54:46;8.45;;;3.97;;
60979;SDS011;46851;49.160;8.980;2023-06-22T09:57:12;8.93;;;4.25;;
60979;SDS011;46851;49.160;8.980;2023-06-22T09:59:38;10.07;;;3.75;;
60979;SDS011;46851;49.160;8.980;2023-06-22T10:02:08;8.10;;;4.15;;
60979;SDS011;46851;49.160;8.980;2023-06-22T10:04:34;7.75;;;4.13;;
60979;SDS011;46851;49.160;8.980;2023-06-22T10:07:01;9.50;;;4.50;;
60979;SDS011;46851;49.160;8.980;2023-06-22T10:09:27;5.32;;;3.45;;
60979;SDS011;46851;49.160;8.980;2023-06-22T10:11:53;8.48;;;3.97;;
60979;SDS011;46851;49.160;8.980;2023-06-22T10:14:19;8.45;;;4.05;;
60979;SDS011;46851;49.160;8.980;2023-06-22T10:16:45;9.68;;;4.10;;
60979;SDS011;46851;49.160;8.980;2023-06-22T10:19:11;8.57;;;4.13;;
60979;SDS011;46851;49.160;8.980;2023-06-22T10:21:37;10.50;;;3.67;;
60979;SDS011;46851;49.160;8.980;2023-06-22T10:24:03;10.73;;;4.32;;
60979;SDS011;46851;49.160;8.980;2023-06-22T10:26:32;6.07;;;3.90;;
60979;SDS011;46851;49.160;8.980;2023-06-22T10:28:59;11.55;;;4.32;;
60979;SDS011;46851;49.160;8.980;2023-06-22T10:31:25;9.32;;;4.25;;
60979;SDS011;46851;49.160;8.980;2023-06-22T10:33:52;7.47;;;3.95;;
60979;SDS011;46851;49.160;8.980;2023-06-22T10:36:18;6.43;;;4.00;;
60979;SDS011;46851;49.160;8.980;2023-06-22T10:38:44;8.63;;;4.28;;
60979;SDS011;46851;49.160;8.980;2023-06-22T10:41:12;6.07;;;4.30;;
60979;SDS011;46851;49.160;8.980;2023-06-22T10:43:38;7.40;;;3.90;;
60979;SDS011;46851;49.160;8.980;2023-06-22T10:46:04;9.18;;;4.53;;
60979;SDS011;46851;49.160;8.980;2023-06-22T10:48:30;7.57;;;4.00;;
60979;SDS011;46851;49.160;8.980;2023-06-22T10:50:56;11.23;;;4.20;;
60979;SDS011;46851;49.160;8.980;2023-06-22T10:53:22;11.40;;;3.97;;
60979;SDS011;46851;49.160;8.980;2023-06-22T10:55:48;6.93;;;4.05;;
60979;SDS011;46851;49.160;8.980;2023-06-22T10:58:14;9.38;;;4.32;;
60979;SDS011;46851;49.160;8.980;2023-06-22T11:00:40;8.85;;;4.53;;
60979;SDS011;46851;49.160;8.980;2023-06-22T11:03:06;8.70;;;4.05;;
60979;SDS011;46851;49.160;8.980;2023-06-22T11:05:32;8.05;;;4.10;;
60979;SDS011;46851;49.160;8.980;2023-06-22T11:07:58;8.23;;;4.07;;
60979;SDS011;46851;49.160;8.980;2023-06-22T11:10:24;12.30;;;4.50;;
60979;SDS011;46851;49.160;8.980;2023-06-22T11:12:51;9.55;;;4.85;;
60979;SDS011;46851;49.160;8.980;2023-06-22T11:15:18;7.95;;;4.07;;
60979;SDS011;46851;49.160;8.980;2023-06-22T11:17:44;9.50;;;4.28;;
60979;SDS011;46851;49.160;8.980;2023-06-22T11:20:11;9.57;;;4.45;;
60979;SDS011;46851;49.160;8.980;2023-06-22T11:22:37;10.75;;;4.47;;
60979;SDS011;46851;49.160;8.980;2023-06-22T11:25:04;7.53;;;4.30;;
60979;SDS011;46851;49.160;8.980;2023-06-22T11:27:30;9.38;;;4.10;;
60979;SDS011;46851;49.160;8.980;2023-06-22T11:29:56;8.15;;;4.40;;
60979;SDS011;46851;49.160;8.980;2023-06-22T11:32:22;10.45;;;4.55;;
60979;SDS011;46851;49.160;8.980;2023-06-22T11:34:49;9.13;;;4.15;;
60979;SDS011;46851;49.160;8.980;2023-06-22T11:37:15;8.77;;;4.32;;
60979;SDS011;46851;49.160;8.980;2023-06-22T11:39:41;7.72;;;4.07;;
60979;SDS011;46851;49.160;8.980;2023-06-22T11:42:07;7.50;;;4.10;;
60979;SDS011;46851;49.160;8.980;2023-06-22T11:44:34;10.15;;;4.30;;
60979;SDS011;46851;49.160;8.980;2023-06-22T11:47:00;7.75;;;4.40;;
60979;SDS011;46851;49.160;8.980;2023-06-22T11:49:28;11.90;;;4.15;;
60979;SDS011;46851;49.160;8.980;2023-06-22T11:51:54;9.90;;;4.47;;
60979;SDS011;46851;49.160;8.980;2023-06-22T11:54:20;10.67;;;4.67;;
60979;SDS011;46851;49.160;8.980;2023-06-22T11:56:46;12.02;;;5.35;;
60979;SDS011;46851;49.160;8.980;2023-06-22T11:59:12;8.07;;;4.93;;
60979;SDS011;46851;49.160;8.980;2023-06-22T12:01:38;9.55;;;3.90;;
60979;SDS011;46851;49.160;8.980;2023-06-22T12:04:04;10.90;;;4.75;;
60979;SDS011;46851;49.160;8.980;2023-06-22T12:06:35;10.13;;;4.80;;
60979;SDS011;46851;49.160;8.980;2023-06-22T12:09:03;9.40;;;4.82;;
60979;SDS011;46851;49.160;8.980;2023-06-22T12:11:29;8.80;;;4.35;;
60979;SDS011;46851;49.160;8.980;2023-06-22T12:13:55;10.32;;;4.75;;
60979;SDS011;46851;49.160;8.980;2023-06-22T12:16:26;9.82;;;4.20;;
60979;SDS011;46851;49.160;8.980;2023-06-22T12:18:52;12.65;;;5.32;;
60979;SDS011;46851;49.160;8.980;2023-06-22T12:21:18;12.85;;;4.90;;
60979;SDS011;46851;49.160;8.980;2023-06-22T12:23:44;8.98;;;5.80;;
60979;SDS011;46851;49.160;8.980;2023-06-22T12:26:10;12.25;;;5.43;;
60979;SDS011;46851;49.160;8.980;2023-06-22T12:28:36;10.00;;;4.43;;
60979;SDS011;46851;49.160;8.980;2023-06-22T12:31:03;15.38;;;4.68;;
60979;SDS011;46851;49.160;8.980;2023-06-22T12:33:29;12.70;;;4.68;;
60979;SDS011;46851;49.160;8.980;2023-06-22T12:35:55;11.45;;;4.50;;
60979;SDS011;46851;49.160;8.980;2023-06-22T12:38:21;11.82;;;4.18;;
60979;SDS011;46851;49.160;8.980;2023-06-22T12:40:49;8.13;;;4.32;;
60979;SDS011;46851;49.160;8.980;2023-06-22T12:43:15;9.68;;;4.47;;
60979;SDS011;46851;49.160;8.980;2023-06-22T12:45:41;9.95;;;4.25;;
60979;SDS011;46851;49.160;8.980;2023-06-22T12:48:07;9.70;;;4.55;;
60979;SDS011;46851;49.160;8.980;2023-06-22T12:50:34;14.38;;;4.95;;
60979;SDS011;46851;49.160;8.980;2023-06-22T12:53:00;13.68;;;5.38;;
60979;SDS011;46851;49.160;8.980;2023-06-22T12:55:27;12.02;;;5.03;;
60979;SDS011;46851;49.160;8.980;2023-06-22T12:57:53;10.43;;;4.43;;
60979;SDS011;46851;49.160;8.980;2023-06-22T13:00:19;15.48;;;4.70;;
60979;SDS011;46851;49.160;8.980;2023-06-22T13:02:45;12.77;;;4.60;;
60979;SDS011;46851;49.160;8.980;2023-06-22T13:05:11;11.65;;;4.70;;
60979;SDS011;46851;49.160;8.980;2023-06-22T13:07:37;9.80;;;3.97;;
60979;SDS011;46851;49.160;8.980;2023-06-22T13:10:03;9.18;;;4.78;;
60979;SDS011;46851;49.160;8.980;2023-06-22T13:12:30;11.23;;;4.70;;
60979;SDS011;46851;49.160;8.980;2023-06-22T13:14:55;11.27;;;5.20;;
60979;SDS011;46851;49.160;8.980;2023-06-22T13:17:21;12.77;;;4.97;;
60979;SDS011;46851;49.160;8.980;2023-06-22T13:19:47;11.98;;;4.70;;
60979;SDS011;46851;49.160;8.980;2023-06-22T13:22:30;10.93;;;4.90;;
60979;SDS011;46851;49.160;8.980;2023-06-22T13:24:56;14.38;;;5.20;;
60979;SDS011;46851;49.160;8.980;2023-06-22T13:27:22;14.88;;;5.10;;
60979;SDS011;46851;49.160;8.980;2023-06-22T13:29:48;9.73;;;4.53;;
60979;SDS011;46851;49.160;8.980;2023-06-22T13:32:14;11.38;;;4.63;;
60979;SDS011;46851;49.160;8.980;2023-06-22T13:34:41;13.30;;;5.00;;
60979;SDS011;46851;49.160;8.980;2023-06-22T13:37:07;16.20;;;4.97;;
60979;SDS011;46851;49.160;8.980;2023-06-22T13:39:33;9.77;;;4.88;;
60979;SDS011;46851;49.160;8.980;2023-06-22T13:41:59;8.00;;;4.05;;
60979;SDS011;46851;49.160;8.980;2023-06-22T13:44:25;10.70;;;4.10;;
60979;SDS011;46851;49.160;8.980;2023-06-22T13:46:54;7.35;;;4.10;;
60979;SDS011;46851;49.160;8.980;2023-06-22T13:49:20;12.82;;;4.80;;
60979;SDS011;46851;49.160;8.980;2023-06-22T13:51:46;13.30;;;4.70;;
60979;SDS011;46851;49.160;8.980;2023-06-22T13:54:16;15.18;;;4.80;;
60979;SDS011;46851;49.160;8.980;2023-06-22T13:56:42;10.50;;;4.60;;
60979;SDS011;46851;49.160;8.980;2023-06-22T13:59:08;11.05;;;4.47;;
60979;SDS011;46851;49.160;8.980;2023-06-22T14:01:35;12.38;;;4.30;;
60979;SDS011;46851;49.160;8.980;2023-06-22T14:04:01;13.75;;;4.70;;
60979;SDS011;46851;49.160;8.980;2023-06-22T14:06:27;10.57;;;4.47;;
60979;SDS011;46851;49.160;8.980;2023-06-22T14:08:53;14.13;;;4.70;;
60979;SDS011;46851;49.160;8.980;2023-06-22T14:11:19;12.75;;;4.60;;
60979;SDS011;46851;49.160;8.980;2023-06-22T14:13:45;12.25;;;4.70;;
60979;SDS011;46851;49.160;8.980;2023-06-22T14:16:11;12.60;;;4.90;;
60979;SDS011;46851;49.160;8.980;2023-06-22T14:18:37;9.15;;;4.50;;
60979;SDS011;46851;49.160;8.980;2023-06-22T14:21:03;10.43;;;4.95;;
60979;SDS011;46851;49.160;8.980;2023-06-22T14:23:29;13.38;;;5.32;;
60979;SDS011;46851;49.160;8.980;2023-06-22T14:25:55;15.25;;;5.22;;
60979;SDS011;46851;49.160;8.980;2023-06-22T14:28:21;12.45;;;4.53;;
60979;SDS011;46851;49.160;8.980;2023-06-22T14:30:47;13.10;;;4.68;;
60979;SDS011;46851;49.160;8.980;2023-06-22T14:33:13;12.50;;;4.35;;
60979;SDS011;46851;49.160;8.980;2023-06-22T14:35:39;13.27;;;4.90;;
60979;SDS011;46851;49.160;8.980;2023-06-22T14:38:05;12.50;;;5.30;;
60979;SDS011;46851;49.160;8.980;2023-06-22T14:40:31;13.43;;;4.90;;
60979;SDS011;46851;49.160;8.980;2023-06-22T14:42:57;10.60;;;4.78;;
60979;SDS011;46851;49.160;8.980;2023-06-22T14:45:23;15.20;;;5.10;;